Narvon, PA (17555)

10:20 AM EDT on March 27, 2017 (GMT -0400)
Musser Rd. | | Change Station

Elev 510 ft 40.12 °N, 76.04 °W | Updated 1 minute ago

Fog
Fog
45.3 °F
Feels Like 45 °F
N
1.2
Wind Variable Wind from East

Today
High -- | Low -- °F
--% Chance of Precip.
Yesterday
High -- | Low -- °F
Precip. -- in
Pressure 30.09 in
Visibility 0.2 miles
Clouds Overcast 100 ft
Windchill 45 °F
Dew Point 45 °F
Humidity 99%
Rainfall 0.20 in
Snow Depth Not available.
6:55 AM 7:23 PM
Waning Crescent, 0% visible
METAR KMQS 271415Z AUTO 00000KT M1/4SM FG OVC001 07/07 A3009 RMK AO2
Pressure 30.09 in
Visibility 0.2 miles
Clouds Overcast 100 ft
Windchill 45 °F
Dew Point 45 °F
Humidity 99%
Rainfall 0.20 in
Snow Depth Not available.
6:55 AM 7:23 PM
Waning Crescent, 0% visible
METAR KMQS 271415Z AUTO 00000KT M1/4SM FG OVC001 07/07 A3009 RMK AO2

Get Severe Weather Alerts

Thanks for signing up!

Be on the lookout for a verification email in your inbox.

You'll start receiving the daily forecast at 8 AM.

×

10-Day Weather Forecast

Almanac

Astronomy

Mar. 27, 2017 Rise Set
Actual Time
Civil Twilight
Nautical Twilight
Astronomical Twilight
Moon
Length of Visible Light
Length of Day
Tomorrow will be .
, % of the Moon is Illuminated

Today's Extremes

State Highs State Lows

Community

WunderPhotos

Upload Photos

1,962,540 photos uploaded!

WunderBlog® & News

Nearby

Air Quality

  Air Quality AQ Index Pollutant
Not available.

Snow Depth

Station Depth Elevation

Earthquake Activity

City Distance Mag. Time & Date
Minimum magnitude displayed is 2.5.

Earthquake Activity

City Distance Mag. Time & Date
Minimum magnitude displayed is 2.5.

Coastal Water Temperatures

Place Temperature

Stations

Nearby Weather Stations

Station Location Temp. Windchill Dew Point Humidity Wind Precip. Elev Updated Type
                   

Watches & Warnings

There are currently no watches in effect.